📊 Raw Sensor Data

Showing records 39351 to 39375 of 84,944 total

ID Distance (ft) Battery V Battery A Int Temp (°F) Int Humid (%) Ext Temp (°F) Solar V RSSI SNR Time Stamp
45606 15.8 4.10 7 72 44 72 5.10 -71 7 07/07/2025 09:30 AM
45605 15.7 3.88 0 70 44 71 5.10 -74 8 07/07/2025 09:00 AM
45604 15.8 4.00 10 70 44 69 5.10 -72 7 07/07/2025 08:45 AM
45603 15.8 3.88 9 69 43 74 5.10 -72 8 07/07/2025 08:30 AM
45602 15.8 4.14 102 68 43 72 4.50 -72 8 07/07/2025 08:15 AM
45601 15.8 4.00 85 67 43 72 4.50 -71 8 07/07/2025 08:00 AM
45600 15.8 4.00 44 65 42 73 4.50 -71 8 07/07/2025 07:45 AM
45599 15.8 3.88 35 64 42 70 4.50 -71 8 07/07/2025 07:30 AM
45598 15.8 3.90 0 62 42 70 4.50 -71 8 07/07/2025 07:15 AM
45597 15.7 3.87 0 57 42 65 4.50 -71 8 07/07/2025 06:45 AM
45596 15.6 3.86 0 55 42 62 4.50 -71 8 07/07/2025 06:30 AM
45595 15.5 3.80 0 53 42 58 4.50 -70 8 07/07/2025 06:15 AM
45594 15.5 3.79 -8 52 43 55 4.50 -71 8 07/07/2025 06:00 AM
45593 15.5 3.79 -9 51 43 53 2.90 -71 7 07/07/2025 05:45 AM
45592 15.5 3.79 -5 51 43 52 0.50 -71 8 07/07/2025 05:30 AM
45591 15.5 3.80 -5 51 43 52 0.00 -71 8 07/07/2025 05:15 AM
45590 15.5 3.80 -5 51 43 52 0.10 -71 8 07/07/2025 05:00 AM
45589 15.5 3.85 -5 51 44 53 0.00 -69 8 07/07/2025 04:45 AM
45588 15.5 3.80 -5 51 44 53 0.10 -69 8 07/07/2025 04:30 AM
45587 15.5 3.85 -5 51 44 53 0.00 -70 8 07/07/2025 04:15 AM
45586 15.5 3.80 -5 52 44 54 0.00 -70 8 07/07/2025 04:00 AM
45585 15.5 3.80 -5 52 44 54 0.00 -70 8 07/07/2025 03:45 AM
45584 15.5 3.85 -5 53 44 55 0.00 -69 8 07/07/2025 03:30 AM
45583 15.5 3.80 -5 54 44 56 0.10 -70 8 07/07/2025 03:15 AM
45582 15.5 3.80 -5 55 44 57 0.00 -70 8 07/07/2025 03:00 AM